sensor_id;sensor_type;location;lat;lon;timestamp;temperature;humidity
6106;DHT22;3083;51.508;7.966;2022-12-18T00:00:46;-5.60;99.90
6106;DHT22;3083;51.508;7.966;2022-12-18T00:03:14;-5.60;99.90
6106;DHT22;3083;51.508;7.966;2022-12-18T00:05:46;-5.60;99.90
6106;DHT22;3083;51.508;7.966;2022-12-18T00:08:14;-5.60;99.90
6106;DHT22;3083;51.508;7.966;2022-12-18T00:10:41;-5.50;99.90
6106;DHT22;3083;51.508;7.966;2022-12-18T00:13:08;-5.50;99.90
6106;DHT22;3083;51.508;7.966;2022-12-18T00:15:36;-5.60;99.90
6106;DHT22;3083;51.508;7.966;2022-12-18T00:18:04;-5.60;99.90
6106;DHT22;3083;51.508;7.966;2022-12-18T00:20:31;-5.60;99.90
6106;DHT22;3083;51.508;7.966;2022-12-18T00:23:01;-5.60;99.90
6106;DHT22;3083;51.508;7.966;2022-12-18T00:25:28;-5.60;99.90
6106;DHT22;3083;51.508;7.966;2022-12-18T00:27:55;-5.60;99.90
6106;DHT22;3083;51.508;7.966;2022-12-18T00:30:22;-5.60;99.90
6106;DHT22;3083;51.508;7.966;2022-12-18T00:32:50;-5.60;99.90
6106;DHT22;3083;51.508;7.966;2022-12-18T00:35:17;-5.60;99.90
6106;DHT22;3083;51.508;7.966;2022-12-18T00:37:44;-5.60;99.90
6106;DHT22;3083;51.508;7.966;2022-12-18T00:40:12;-5.60;99.90
6106;DHT22;3083;51.508;7.966;2022-12-18T00:42:39;-5.50;99.90
6106;DHT22;3083;51.508;7.966;2022-12-18T00:45:24;-5.50;99.90
6106;DHT22;3083;51.508;7.966;2022-12-18T00:47:52;-5.50;99.90
6106;DHT22;3083;51.508;7.966;2022-12-18T00:50:19;-5.50;99.90
6106;DHT22;3083;51.508;7.966;2022-12-18T00:52:47;-5.50;99.90
6106;DHT22;3083;51.508;7.966;2022-12-18T00:55:14;-5.50;99.90
6106;DHT22;3083;51.508;7.966;2022-12-18T00:57:41;-5.40;99.90
6106;DHT22;3083;51.508;7.966;2022-12-18T01:00:11;-5.50;99.90
6106;DHT22;3083;51.508;7.966;2022-12-18T01:02:39;-5.50;99.90
6106;DHT22;3083;51.508;7.966;2022-12-18T01:05:08;-5.50;99.90
6106;DHT22;3083;51.508;7.966;2022-12-18T01:07:35;-5.50;99.90
6106;DHT22;3083;51.508;7.966;2022-12-18T01:10:03;-5.50;99.90
6106;DHT22;3083;51.508;7.966;2022-12-18T01:12:30;-5.60;99.90
6106;DHT22;3083;51.508;7.966;2022-12-18T01:14:58;-5.60;99.90
6106;DHT22;3083;51.508;7.966;2022-12-18T01:17:25;-5.60;99.90
6106;DHT22;3083;51.508;7.966;2022-12-18T01:19:52;-5.60;99.90
6106;DHT22;3083;51.508;7.966;2022-12-18T01:22:20;-5.60;99.90
6106;DHT22;3083;51.508;7.966;2022-12-18T01:24:47;-5.70;99.90
6106;DHT22;3083;51.508;7.966;2022-12-18T01:27:14;-5.70;99.90
6106;DHT22;3083;51.508;7.966;2022-12-18T01:29:41;-5.70;99.90
6106;DHT22;3083;51.508;7.966;2022-12-18T01:32:08;-5.70;99.90
6106;DHT22;3083;51.508;7.966;2022-12-18T01:34:35;-5.70;99.90
6106;DHT22;3083;51.508;7.966;2022-12-18T01:37:02;-5.70;99.90
6106;DHT22;3083;51.508;7.966;2022-12-18T01:39:31;-5.80;99.90
6106;DHT22;3083;51.508;7.966;2022-12-18T01:41:58;-5.70;99.90
6106;DHT22;3083;51.508;7.966;2022-12-18T01:44:54;-5.60;99.90
6106;DHT22;3083;51.508;7.966;2022-12-18T01:47:23;-5.50;99.90
6106;DHT22;3083;51.508;7.966;2022-12-18T01:49:51;-5.40;99.90
6106;DHT22;3083;51.508;7.966;2022-12-18T01:52:19;-5.30;99.90
6106;DHT22;3083;51.508;7.966;2022-12-18T01:54:49;-5.30;99.90
6106;DHT22;3083;51.508;7.966;2022-12-18T01:57:16;-5.30;99.90
6106;DHT22;3083;51.508;7.966;2022-12-18T01:59:45;-5.30;99.90
6106;DHT22;3083;51.508;7.966;2022-12-18T02:02:14;-5.30;99.90
6106;DHT22;3083;51.508;7.966;2022-12-18T02:04:41;-5.30;99.90
6106;DHT22;3083;51.508;7.966;2022-12-18T02:07:14;-5.30;99.90
6106;DHT22;3083;51.508;7.966;2022-12-18T02:09:48;-5.20;99.90
6106;DHT22;3083;51.508;7.966;2022-12-18T02:12:20;-5.20;99.90
6106;DHT22;3083;51.508;7.966;2022-12-18T02:14:53;-5.20;99.90
6106;DHT22;3083;51.508;7.966;2022-12-18T02:17:23;-5.00;99.90
6106;DHT22;3083;51.508;7.966;2022-12-18T02:20:01;-5.00;99.90
6106;DHT22;3083;51.508;7.966;2022-12-18T02:22:37;-4.90;99.90
6106;DHT22;3083;51.508;7.966;2022-12-18T02:25:21;-4.80;99.90
6106;DHT22;3083;51.508;7.966;2022-12-18T02:27:52;-4.80;99.90
6106;DHT22;3083;51.508;7.966;2022-12-18T02:30:20;-4.70;99.90
6106;DHT22;3083;51.508;7.966;2022-12-18T02:32:50;-4.70;99.90
6106;DHT22;3083;51.508;7.966;2022-12-18T02:35:22;-4.80;99.90
6106;DHT22;3083;51.508;7.966;2022-12-18T02:37:50;-4.80;99.90
6106;DHT22;3083;51.508;7.966;2022-12-18T02:40:19;-4.80;99.90
6106;DHT22;3083;51.508;7.966;2022-12-18T02:42:46;-4.90;99.90
6106;DHT22;3083;51.508;7.966;2022-12-18T02:45:14;-5.00;99.90
6106;DHT22;3083;51.508;7.966;2022-12-18T02:47:43;-5.00;99.90
6106;DHT22;3083;51.508;7.966;2022-12-18T02:50:16;-5.00;99.90
6106;DHT22;3083;51.508;7.966;2022-12-18T02:52:55;-5.10;99.90
6106;DHT22;3083;51.508;7.966;2022-12-18T02:55:37;-5.20;99.90
6106;DHT22;3083;51.508;7.966;2022-12-18T02:58:12;-5.20;99.90
6106;DHT22;3083;51.508;7.966;2022-12-18T03:00:46;-5.20;99.90
6106;DHT22;3083;51.508;7.966;2022-12-18T03:03:19;-5.30;99.90
6106;DHT22;3083;51.508;7.966;2022-12-18T03:05:52;-5.30;99.90
6106;DHT22;3083;51.508;7.966;2022-12-18T03:08:22;-5.30;99.90
6106;DHT22;3083;51.508;7.966;2022-12-18T03:10:55;-5.30;99.90
6106;DHT22;3083;51.508;7.966;2022-12-18T03:13:26;-5.30;99.90
6106;DHT22;3083;51.508;7.966;2022-12-18T03:15:57;-5.30;99.90
6106;DHT22;3083;51.508;7.966;2022-12-18T03:18:29;-5.30;99.90
6106;DHT22;3083;51.508;7.966;2022-12-18T03:21:00;-5.30;99.90
6106;DHT22;3083;51.508;7.966;2022-12-18T03:23:33;-5.30;99.90
6106;DHT22;3083;51.508;7.966;2022-12-18T03:26:04;-5.30;99.90
6106;DHT22;3083;51.508;7.966;2022-12-18T03:28:36;-5.30;99.90
6106;DHT22;3083;51.508;7.966;2022-12-18T03:31:08;-5.30;99.90
6106;DHT22;3083;51.508;7.966;2022-12-18T03:33:39;-5.30;99.90
6106;DHT22;3083;51.508;7.966;2022-12-18T03:36:08;-5.40;99.90
6106;DHT22;3083;51.508;7.966;2022-12-18T03:38:35;-5.50;99.90
6106;DHT22;3083;51.508;7.966;2022-12-18T03:41:07;-5.50;99.90
6106;DHT22;3083;51.508;7.966;2022-12-18T03:43:43;-5.60;99.90
6106;DHT22;3083;51.508;7.966;2022-12-18T03:46:20;-5.60;99.90
6106;DHT22;3083;51.508;7.966;2022-12-18T03:48:56;-5.60;99.90
6106;DHT22;3083;51.508;7.966;2022-12-18T03:51:28;-5.60;99.90
6106;DHT22;3083;51.508;7.966;2022-12-18T03:53:58;-5.70;99.90
6106;DHT22;3083;51.508;7.966;2022-12-18T03:56:29;-5.70;99.90
6106;DHT22;3083;51.508;7.966;2022-12-18T03:58:58;-5.70;99.90
6106;DHT22;3083;51.508;7.966;2022-12-18T04:01:30;-5.80;99.90
6106;DHT22;3083;51.508;7.966;2022-12-18T04:04:00;-5.80;99.90
6106;DHT22;3083;51.508;7.966;2022-12-18T04:06:28;-5.80;99.90
6106;DHT22;3083;51.508;7.966;2022-12-18T04:08:57;-5.80;99.90
6106;DHT22;3083;51.508;7.966;2022-12-18T04:11:24;-5.90;99.90
6106;DHT22;3083;51.508;7.966;2022-12-18T04:13:55;-5.90;99.90
6106;DHT22;3083;51.508;7.966;2022-12-18T04:16:22;-6.00;99.90
6106;DHT22;3083;51.508;7.966;2022-12-18T04:18:51;-6.00;99.90
6106;DHT22;3083;51.508;7.966;2022-12-18T04:21:18;-6.00;99.90
6106;DHT22;3083;51.508;7.966;2022-12-18T04:23:45;-6.00;99.90
6106;DHT22;3083;51.508;7.966;2022-12-18T04:26:12;-6.10;99.90
6106;DHT22;3083;51.508;7.966;2022-12-18T04:28:39;-6.10;99.90
6106;DHT22;3083;51.508;7.966;2022-12-18T04:31:06;-6.10;99.90
6106;DHT22;3083;51.508;7.966;2022-12-18T04:33:33;-6.10;99.90
6106;DHT22;3083;51.508;7.966;2022-12-18T04:36:01;-6.20;99.90
6106;DHT22;3083;51.508;7.966;2022-12-18T04:38:28;-6.20;99.90
6106;DHT22;3083;51.508;7.966;2022-12-18T04:40:55;-6.30;99.90
6106;DHT22;3083;51.508;7.966;2022-12-18T04:43:22;-6.30;99.90
6106;DHT22;3083;51.508;7.966;2022-12-18T04:45:49;-6.30;99.90
6106;DHT22;3083;51.508;7.966;2022-12-18T04:48:16;-6.30;99.90
6106;DHT22;3083;51.508;7.966;2022-12-18T04:50:43;-6.40;99.90
6106;DHT22;3083;51.508;7.966;2022-12-18T04:53:11;-6.40;99.90
6106;DHT22;3083;51.508;7.966;2022-12-18T04:55:38;-6.40;99.90
6106;DHT22;3083;51.508;7.966;2022-12-18T04:58:05;-6.40;99.90
6106;DHT22;3083;51.508;7.966;2022-12-18T05:00:32;-6.40;99.90
6106;DHT22;3083;51.508;7.966;2022-12-18T05:03:00;-6.40;99.90
6106;DHT22;3083;51.508;7.966;2022-12-18T05:05:27;-6.40;99.90
6106;DHT22;3083;51.508;7.966;2022-12-18T05:07:54;-6.30;99.90
6106;DHT22;3083;51.508;7.966;2022-12-18T05:10:22;-6.30;99.90
6106;DHT22;3083;51.508;7.966;2022-12-18T05:12:49;-6.20;99.90
6106;DHT22;3083;51.508;7.966;2022-12-18T05:15:27;-6.10;99.90
6106;DHT22;3083;51.508;7.966;2022-12-18T05:17:54;-6.00;99.90
6106;DHT22;3083;51.508;7.966;2022-12-18T05:20:21;-6.00;99.90
6106;DHT22;3083;51.508;7.966;2022-12-18T05:22:48;-5.90;99.90
6106;DHT22;3083;51.508;7.966;2022-12-18T05:25:14;-5.90;99.90
6106;DHT22;3083;51.508;7.966;2022-12-18T05:27:43;-5.80;99.90
6106;DHT22;3083;51.508;7.966;2022-12-18T05:30:11;-5.80;99.90
6106;DHT22;3083;51.508;7.966;2022-12-18T05:32:38;-5.70;99.90
6106;DHT22;3083;51.508;7.966;2022-12-18T05:35:07;-5.60;99.90
6106;DHT22;3083;51.508;7.966;2022-12-18T05:37:35;-5.60;99.90
6106;DHT22;3083;51.508;7.966;2022-12-18T05:40:03;-5.50;99.90
6106;DHT22;3083;51.508;7.966;2022-12-18T05:42:30;-5.50;99.90
6106;DHT22;3083;51.508;7.966;2022-12-18T05:44:59;-5.50;99.90
6106;DHT22;3083;51.508;7.966;2022-12-18T05:47:26;-5.50;99.90
6106;DHT22;3083;51.508;7.966;2022-12-18T05:49:53;-5.50;99.90
6106;DHT22;3083;51.508;7.966;2022-12-18T05:52:20;-5.50;99.90
6106;DHT22;3083;51.508;7.966;2022-12-18T05:54:47;-5.60;99.90
6106;DHT22;3083;51.508;7.966;2022-12-18T05:57:15;-5.60;99.90
6106;DHT22;3083;51.508;7.966;2022-12-18T05:59:42;-5.60;99.90
6106;DHT22;3083;51.508;7.966;2022-12-18T06:02:10;-5.60;99.90
6106;DHT22;3083;51.508;7.966;2022-12-18T06:04:37;-5.60;99.90
6106;DHT22;3083;51.508;7.966;2022-12-18T06:07:04;-5.60;99.90
6106;DHT22;3083;51.508;7.966;2022-12-18T06:09:31;-5.60;99.90
6106;DHT22;3083;51.508;7.966;2022-12-18T06:11:58;-5.60;99.90
6106;DHT22;3083;51.508;7.966;2022-12-18T06:14:25;-5.60;99.90
6106;DHT22;3083;51.508;7.966;2022-12-18T06:16:52;-5.60;99.90
6106;DHT22;3083;51.508;7.966;2022-12-18T06:19:20;-5.60;99.90
6106;DHT22;3083;51.508;7.966;2022-12-18T06:21:47;-5.60;99.90
6106;DHT22;3083;51.508;7.966;2022-12-18T06:24:14;-5.60;99.90
6106;DHT22;3083;51.508;7.966;2022-12-18T06:26:41;-5.60;99.90
6106;DHT22;3083;51.508;7.966;2022-12-18T06:29:08;-5.60;99.90
6106;DHT22;3083;51.508;7.966;2022-12-18T06:31:35;-5.60;99.90
6106;DHT22;3083;51.508;7.966;2022-12-18T06:34:03;-5.70;99.90
6106;DHT22;3083;51.508;7.966;2022-12-18T06:36:32;-5.70;99.90
6106;DHT22;3083;51.508;7.966;2022-12-18T06:38:59;-5.70;99.90
6106;DHT22;3083;51.508;7.966;2022-12-18T06:41:26;-5.60;99.90
6106;DHT22;3083;51.508;7.966;2022-12-18T06:43:53;-5.30;99.90
6106;DHT22;3083;51.508;7.966;2022-12-18T06:46:20;-5.10;99.90
6106;DHT22;3083;51.508;7.966;2022-12-18T06:48:48;-5.00;99.90
6106;DHT22;3083;51.508;7.966;2022-12-18T06:51:19;-4.80;99.90
6106;DHT22;3083;51.508;7.966;2022-12-18T06:53:48;-4.70;99.90
6106;DHT22;3083;51.508;7.966;2022-12-18T06:56:15;-4.50;99.90
6106;DHT22;3083;51.508;7.966;2022-12-18T06:58:42;-4.40;99.90
6106;DHT22;3083;51.508;7.966;2022-12-18T07:01:11;-4.30;99.90
6106;DHT22;3083;51.508;7.966;2022-12-18T07:03:38;-4.10;99.90
6106;DHT22;3083;51.508;7.966;2022-12-18T07:06:05;-4.00;99.90
6106;DHT22;3083;51.508;7.966;2022-12-18T07:08:32;-3.90;99.90
6106;DHT22;3083;51.508;7.966;2022-12-18T07:11:04;-3.80;99.90
6106;DHT22;3083;51.508;7.966;2022-12-18T07:13:31;-3.70;99.90
6106;DHT22;3083;51.508;7.966;2022-12-18T07:16:06;-3.70;99.90
6106;DHT22;3083;51.508;7.966;2022-12-18T07:18:34;-3.60;99.90
6106;DHT22;3083;51.508;7.966;2022-12-18T07:21:03;-3.60;99.90
6106;DHT22;3083;51.508;7.966;2022-12-18T07:23:32;-3.50;99.90
6106;DHT22;3083;51.508;7.966;2022-12-18T07:26:02;-3.50;99.90
6106;DHT22;3083;51.508;7.966;2022-12-18T07:28:30;-3.50;99.90
6106;DHT22;3083;51.508;7.966;2022-12-18T07:30:57;-3.50;99.90
6106;DHT22;3083;51.508;7.966;2022-12-18T07:33:24;-3.40;99.90
6106;DHT22;3083;51.508;7.966;2022-12-18T07:35:51;-3.40;99.90
6106;DHT22;3083;51.508;7.966;2022-12-18T07:38:18;-3.40;99.90
6106;DHT22;3083;51.508;7.966;2022-12-18T07:40:45;-3.40;99.90
6106;DHT22;3083;51.508;7.966;2022-12-18T07:43:13;-3.40;99.90
6106;DHT22;3083;51.508;7.966;2022-12-18T07:45:40;-3.30;99.90
6106;DHT22;3083;51.508;7.966;2022-12-18T07:48:07;-3.20;99.90
6106;DHT22;3083;51.508;7.966;2022-12-18T07:50:34;-3.20;99.90
6106;DHT22;3083;51.508;7.966;2022-12-18T07:53:01;-3.20;99.90
6106;DHT22;3083;51.508;7.966;2022-12-18T07:55:29;-3.00;99.90
6106;DHT22;3083;51.508;7.966;2022-12-18T07:57:56;-3.00;99.90
6106;DHT22;3083;51.508;7.966;2022-12-18T08:00:24;-2.90;99.90
6106;DHT22;3083;51.508;7.966;2022-12-18T08:02:51;-2.80;99.90
6106;DHT22;3083;51.508;7.966;2022-12-18T08:05:17;-2.70;99.90
6106;DHT22;3083;51.508;7.966;2022-12-18T08:07:46;-2.70;99.90
6106;DHT22;3083;51.508;7.966;2022-12-18T08:10:13;-2.60;99.90
6106;DHT22;3083;51.508;7.966;2022-12-18T08:12:40;-2.60;99.90
6106;DHT22;3083;51.508;7.966;2022-12-18T08:15:08;-2.50;99.90
6106;DHT22;3083;51.508;7.966;2022-12-18T08:17:36;-2.50;99.90
6106;DHT22;3083;51.508;7.966;2022-12-18T08:20:04;-2.40;99.90
6106;DHT22;3083;51.508;7.966;2022-12-18T08:22:33;-2.40;99.90
6106;DHT22;3083;51.508;7.966;2022-12-18T08:25:00;-2.30;99.90
6106;DHT22;3083;51.508;7.966;2022-12-18T08:27:26;-2.30;99.90
6106;DHT22;3083;51.508;7.966;2022-12-18T08:29:53;-2.20;99.90
6106;DHT22;3083;51.508;7.966;2022-12-18T08:32:20;-2.10;99.90
6106;DHT22;3083;51.508;7.966;2022-12-18T08:34:49;-2.10;99.90
6106;DHT22;3083;51.508;7.966;2022-12-18T08:37:16;-2.00;99.90
6106;DHT22;3083;51.508;7.966;2022-12-18T08:39:42;-2.00;99.90
6106;DHT22;3083;51.508;7.966;2022-12-18T08:42:09;-2.00;99.90
6106;DHT22;3083;51.508;7.966;2022-12-18T08:44:54;-2.00;99.90
6106;DHT22;3083;51.508;7.966;2022-12-18T08:47:21;-2.00;99.90
6106;DHT22;3083;51.508;7.966;2022-12-18T08:49:49;-2.00;99.90
6106;DHT22;3083;51.508;7.966;2022-12-18T08:52:16;-1.90;99.90
6106;DHT22;3083;51.508;7.966;2022-12-18T08:54:43;-1.90;99.90
6106;DHT22;3083;51.508;7.966;2022-12-18T08:57:10;-1.90;99.90
6106;DHT22;3083;51.508;7.966;2022-12-18T08:59:37;-1.80;99.90
6106;DHT22;3083;51.508;7.966;2022-12-18T09:02:04;-1.80;99.90
6106;DHT22;3083;51.508;7.966;2022-12-18T09:04:31;-1.70;99.90
6106;DHT22;3083;51.508;7.966;2022-12-18T09:06:59;-1.60;99.90
6106;DHT22;3083;51.508;7.966;2022-12-18T09:09:26;-1.60;99.90
6106;DHT22;3083;51.508;7.966;2022-12-18T09:11:53;-1.50;99.90
6106;DHT22;3083;51.508;7.966;2022-12-18T09:14:20;-1.50;99.90
6106;DHT22;3083;51.508;7.966;2022-12-18T09:16:46;-1.40;99.90
6106;DHT22;3083;51.508;7.966;2022-12-18T09:19:13;-1.40;99.90
6106;DHT22;3083;51.508;7.966;2022-12-18T09:21:40;-1.30;99.90
6106;DHT22;3083;51.508;7.966;2022-12-18T09:24:12;-1.30;99.90
6106;DHT22;3083;51.508;7.966;2022-12-18T09:26:39;-1.20;99.90
6106;DHT22;3083;51.508;7.966;2022-12-18T09:29:07;-1.10;99.90
6106;DHT22;3083;51.508;7.966;2022-12-18T09:31:35;-1.00;99.90
6106;DHT22;3083;51.508;7.966;2022-12-18T09:34:02;-0.90;99.90
6106;DHT22;3083;51.508;7.966;2022-12-18T09:36:33;-0.80;99.90
6106;DHT22;3083;51.508;7.966;2022-12-18T09:39:00;-0.60;99.90
6106;DHT22;3083;51.508;7.966;2022-12-18T09:41:44;-0.50;99.90
6106;DHT22;3083;51.508;7.966;2022-12-18T09:44:20;-0.40;99.90
6106;DHT22;3083;51.508;7.966;2022-12-18T09:46:53;-0.30;99.90
6106;DHT22;3083;51.508;7.966;2022-12-18T09:49:24;-0.20;99.90
6106;DHT22;3083;51.508;7.966;2022-12-18T09:51:55;-0.10;99.90
6106;DHT22;3083;51.508;7.966;2022-12-18T09:54:26;0.00;99.90
6106;DHT22;3083;51.508;7.966;2022-12-18T09:56:58;0.00;99.90
6106;DHT22;3083;51.508;7.966;2022-12-18T09:59:29;0.10;99.90
6106;DHT22;3083;51.508;7.966;2022-12-18T10:01:57;0.20;99.90
6106;DHT22;3083;51.508;7.966;2022-12-18T10:04:24;0.30;99.90
6106;DHT22;3083;51.508;7.966;2022-12-18T10:06:57;0.50;99.90
6106;DHT22;3083;51.508;7.966;2022-12-18T10:09:30;0.60;99.90
6106;DHT22;3083;51.508;7.966;2022-12-18T10:12:07;0.80;99.90
6106;DHT22;3083;51.508;7.966;2022-12-18T10:14:41;0.90;99.90
6106;DHT22;3083;51.508;7.966;2022-12-18T10:17:20;1.10;99.90
6106;DHT22;3083;51.508;7.966;2022-12-18T10:19:53;1.20;99.90
6106;DHT22;3083;51.508;7.966;2022-12-18T10:22:39;1.30;99.90
6106;DHT22;3083;51.508;7.966;2022-12-18T10:25:19;1.40;99.90
6106;DHT22;3083;51.508;7.966;2022-12-18T10:27:52;1.60;99.90
6106;DHT22;3083;51.508;7.966;2022-12-18T10:30:21;1.80;99.90
6106;DHT22;3083;51.508;7.966;2022-12-18T10:32:48;1.90;99.90
6106;DHT22;3083;51.508;7.966;2022-12-18T10:35:19;2.10;99.90
6106;DHT22;3083;51.508;7.966;2022-12-18T10:38:21;2.20;99.90
6106;DHT22;3083;51.508;7.966;2022-12-18T10:40:50;2.30;99.90
6106;DHT22;3083;51.508;7.966;2022-12-18T10:43:23;2.40;99.90
6106;DHT22;3083;51.508;7.966;2022-12-18T10:46:15;2.50;99.90
6106;DHT22;3083;51.508;7.966;2022-12-18T10:48:54;2.50;99.90
6106;DHT22;3083;51.508;7.966;2022-12-18T10:51:24;2.50;99.90
6106;DHT22;3083;51.508;7.966;2022-12-18T10:53:55;2.50;99.90
6106;DHT22;3083;51.508;7.966;2022-12-18T10:56:24;2.40;99.90
6106;DHT22;3083;51.508;7.966;2022-12-18T10:58:59;2.50;99.90
6106;DHT22;3083;51.508;7.966;2022-12-18T11:01:28;2.40;99.90
6106;DHT22;3083;51.508;7.966;2022-12-18T11:04:07;2.50;99.90
6106;DHT22;3083;51.508;7.966;2022-12-18T11:06:53;2.50;99.90
6106;DHT22;3083;51.508;7.966;2022-12-18T11:09:22;2.50;99.90
6106;DHT22;3083;51.508;7.966;2022-12-18T11:11:51;2.60;99.90
6106;DHT22;3083;51.508;7.966;2022-12-18T11:14:22;2.60;99.90
6106;DHT22;3083;51.508;7.966;2022-12-18T11:16:51;2.70;99.90
6106;DHT22;3083;51.508;7.966;2022-12-18T11:19:28;2.70;99.90
6106;DHT22;3083;51.508;7.966;2022-12-18T11:21:56;2.80;99.90
6106;DHT22;3083;51.508;7.966;2022-12-18T11:24:28;2.80;99.90
6106;DHT22;3083;51.508;7.966;2022-12-18T11:26:58;2.80;99.90
6106;DHT22;3083;51.508;7.966;2022-12-18T11:29:36;2.80;99.90
6106;DHT22;3083;51.508;7.966;2022-12-18T11:32:36;2.90;99.90
6106;DHT22;3083;51.508;7.966;2022-12-18T11:35:13;2.90;99.90
6106;DHT22;3083;51.508;7.966;2022-12-18T11:37:44;3.00;99.90
6106;DHT22;3083;51.508;7.966;2022-12-18T11:40:16;3.00;99.90
6106;DHT22;3083;51.508;7.966;2022-12-18T11:42:50;3.10;99.90
6106;DHT22;3083;51.508;7.966;2022-12-18T11:45:29;3.10;99.90
6106;DHT22;3083;51.508;7.966;2022-12-18T11:48:01;3.10;99.90
6106;DHT22;3083;51.508;7.966;2022-12-18T11:50:38;3.20;99.90
6106;DHT22;3083;51.508;7.966;2022-12-18T11:53:11;3.20;99.90
6106;DHT22;3083;51.508;7.966;2022-12-18T11:55:45;3.20;99.90
6106;DHT22;3083;51.508;7.966;2022-12-18T11:58:20;3.20;99.90
6106;DHT22;3083;51.508;7.966;2022-12-18T12:00:58;3.20;99.90
6106;DHT22;3083;51.508;7.966;2022-12-18T12:03:49;3.20;99.90
6106;DHT22;3083;51.508;7.966;2022-12-18T12:06:26;3.20;99.90
6106;DHT22;3083;51.508;7.966;2022-12-18T12:09:04;3.20;99.90
6106;DHT22;3083;51.508;7.966;2022-12-18T12:11:43;3.20;99.90
6106;DHT22;3083;51.508;7.966;2022-12-18T12:14:23;3.20;99.90
6106;DHT22;3083;51.508;7.966;2022-12-18T12:16:57;3.20;99.90
6106;DHT22;3083;51.508;7.966;2022-12-18T12:19:35;3.20;99.90
6106;DHT22;3083;51.508;7.966;2022-12-18T12:22:10;3.30;99.90
6106;DHT22;3083;51.508;7.966;2022-12-18T12:24:58;3.30;99.90
6106;DHT22;3083;51.508;7.966;2022-12-18T12:27:35;3.30;99.90
6106;DHT22;3083;51.508;7.966;2022-12-18T12:30:06;3.30;99.90
6106;DHT22;3083;51.508;7.966;2022-12-18T12:32:45;3.30;99.90
6106;DHT22;3083;51.508;7.966;2022-12-18T12:35:30;3.30;99.90
6106;DHT22;3083;51.508;7.966;2022-12-18T12:38:08;3.30;99.90
6106;DHT22;3083;51.508;7.966;2022-12-18T12:40:41;3.30;99.90
6106;DHT22;3083;51.508;7.966;2022-12-18T12:43:26;3.30;99.90
6106;DHT22;3083;51.508;7.966;2022-12-18T12:45:55;3.40;99.90
6106;DHT22;3083;51.508;7.966;2022-12-18T12:48:41;3.40;99.90
6106;DHT22;3083;51.508;7.966;2022-12-18T12:51:13;3.40;99.90
6106;DHT22;3083;51.508;7.966;2022-12-18T12:53:42;3.40;99.90
6106;DHT22;3083;51.508;7.966;2022-12-18T12:56:11;3.40;99.90
6106;DHT22;3083;51.508;7.966;2022-12-18T12:58:48;3.40;99.90
6106;DHT22;3083;51.508;7.966;2022-12-18T13:01:23;3.40;99.90
6106;DHT22;3083;51.508;7.966;2022-12-18T13:04:03;3.30;99.90
6106;DHT22;3083;51.508;7.966;2022-12-18T13:06:42;3.30;99.90
6106;DHT22;3083;51.508;7.966;2022-12-18T13:09:09;3.30;99.90
6106;DHT22;3083;51.508;7.966;2022-12-18T13:11:38;3.30;99.90
6106;DHT22;3083;51.508;7.966;2022-12-18T13:14:27;3.30;99.90
6106;DHT22;3083;51.508;7.966;2022-12-18T13:20:15;3.30;99.90
6106;DHT22;3083;51.508;7.966;2022-12-18T13:22:45;3.30;99.90
6106;DHT22;3083;51.508;7.966;2022-12-18T13:25:33;3.30;99.90
6106;DHT22;3083;51.508;7.966;2022-12-18T13:28:06;3.30;99.90
6106;DHT22;3083;51.508;7.966;2022-12-18T13:30:53;3.30;99.90
6106;DHT22;3083;51.508;7.966;2022-12-18T13:33:47;3.30;99.90
6106;DHT22;3083;51.508;7.966;2022-12-18T13:36:29;3.30;99.90
6106;DHT22;3083;51.508;7.966;2022-12-18T13:42:30;3.20;99.90
6106;DHT22;3083;51.508;7.966;2022-12-18T13:44:55;3.20;99.90
6106;DHT22;3083;51.508;7.966;2022-12-18T13:47:27;3.20;99.90
6106;DHT22;3083;51.508;7.966;2022-12-18T13:49:55;3.20;99.90
6106;DHT22;3083;51.508;7.966;2022-12-18T13:52:26;3.10;99.90
6106;DHT22;3083;51.508;7.966;2022-12-18T13:54:56;3.10;99.90
6106;DHT22;3083;51.508;7.966;2022-12-18T13:57:28;3.10;99.90
6106;DHT22;3083;51.508;7.966;2022-12-18T13:59:56;3.10;99.90
6106;DHT22;3083;51.508;7.966;2022-12-18T14:02:24;3.00;99.90
6106;DHT22;3083;51.508;7.966;2022-12-18T14:04:52;3.00;99.90
6106;DHT22;3083;51.508;7.966;2022-12-18T14:07:21;3.00;99.90
6106;DHT22;3083;51.508;7.966;2022-12-18T14:09:52;3.00;99.90
6106;DHT22;3083;51.508;7.966;2022-12-18T14:12:23;2.90;99.90
6106;DHT22;3083;51.508;7.966;2022-12-18T14:15:19;2.90;99.90
6106;DHT22;3083;51.508;7.966;2022-12-18T14:17:47;2.90;99.90
6106;DHT22;3083;51.508;7.966;2022-12-18T14:20:15;2.80;99.90
6106;DHT22;3083;51.508;7.966;2022-12-18T14:22:45;2.80;99.90
6106;DHT22;3083;51.508;7.966;2022-12-18T14:25:19;2.80;99.90
6106;DHT22;3083;51.508;7.966;2022-12-18T14:27:50;2.80;99.90
6106;DHT22;3083;51.508;7.966;2022-12-18T14:30:29;2.80;99.90
6106;DHT22;3083;51.508;7.966;2022-12-18T14:33:00;2.80;99.90
6106;DHT22;3083;51.508;7.966;2022-12-18T14:35:28;2.70;99.90
6106;DHT22;3083;51.508;7.966;2022-12-18T14:38:18;2.70;99.90
6106;DHT22;3083;51.508;7.966;2022-12-18T14:40:51;2.70;99.90
6106;DHT22;3083;51.508;7.966;2022-12-18T14:43:18;2.70;99.90
6106;DHT22;3083;51.508;7.966;2022-12-18T14:45:45;2.70;99.90
6106;DHT22;3083;51.508;7.966;2022-12-18T14:48:16;2.70;99.90
6106;DHT22;3083;51.508;7.966;2022-12-18T14:50:44;2.70;99.90
6106;DHT22;3083;51.508;7.966;2022-12-18T14:53:20;2.70;99.90
6106;DHT22;3083;51.508;7.966;2022-12-18T14:55:50;2.60;99.90
6106;DHT22;3083;51.508;7.966;2022-12-18T14:58:17;2.60;99.90
6106;DHT22;3083;51.508;7.966;2022-12-18T15:00:44;2.60;99.90
6106;DHT22;3083;51.508;7.966;2022-12-18T15:03:15;2.50;99.90
6106;DHT22;3083;51.508;7.966;2022-12-18T15:05:44;2.50;99.90
6106;DHT22;3083;51.508;7.966;2022-12-18T15:08:28;2.40;99.90
6106;DHT22;3083;51.508;7.966;2022-12-18T15:10:57;2.40;99.90
6106;DHT22;3083;51.508;7.966;2022-12-18T15:13:24;2.30;99.90
6106;DHT22;3083;51.508;7.966;2022-12-18T15:15:52;2.30;99.90
6106;DHT22;3083;51.508;7.966;2022-12-18T15:18:21;2.20;99.90
6106;DHT22;3083;51.508;7.966;2022-12-18T15:20:50;2.20;99.90
6106;DHT22;3083;51.508;7.966;2022-12-18T15:23:19;2.20;99.90
6106;DHT22;3083;51.508;7.966;2022-12-18T15:25:49;2.10;99.90
6106;DHT22;3083;51.508;7.966;2022-12-18T15:28:25;2.10;99.90
6106;DHT22;3083;51.508;7.966;2022-12-18T15:31:05;2.00;99.90
6106;DHT22;3083;51.508;7.966;2022-12-18T15:33:34;2.00;99.90
6106;DHT22;3083;51.508;7.966;2022-12-18T15:36:02;2.00;99.90
6106;DHT22;3083;51.508;7.966;2022-12-18T15:38:30;1.90;99.90
6106;DHT22;3083;51.508;7.966;2022-12-18T15:40:57;2.00;99.90
6106;DHT22;3083;51.508;7.966;2022-12-18T15:43:27;1.90;99.90
6106;DHT22;3083;51.508;7.966;2022-12-18T15:45:59;1.90;99.90
6106;DHT22;3083;51.508;7.966;2022-12-18T15:48:26;1.90;99.90
6106;DHT22;3083;51.508;7.966;2022-12-18T15:50:55;1.90;99.90
6106;DHT22;3083;51.508;7.966;2022-12-18T15:53:25;1.90;99.90
6106;DHT22;3083;51.508;7.966;2022-12-18T15:55:52;1.90;99.90
6106;DHT22;3083;51.508;7.966;2022-12-18T15:58:38;1.80;99.90
6106;DHT22;3083;51.508;7.966;2022-12-18T16:01:05;1.80;99.90
6106;DHT22;3083;51.508;7.966;2022-12-18T16:03:34;1.70;99.90
6106;DHT22;3083;51.508;7.966;2022-12-18T16:06:01;1.70;99.90
6106;DHT22;3083;51.508;7.966;2022-12-18T16:08:28;1.70;99.90
6106;DHT22;3083;51.508;7.966;2022-12-18T16:10:55;1.60;99.90
6106;DHT22;3083;51.508;7.966;2022-12-18T16:13:23;1.60;99.90
6106;DHT22;3083;51.508;7.966;2022-12-18T16:15:51;1.60;99.90
6106;DHT22;3083;51.508;7.966;2022-12-18T16:18:18;1.60;99.90
6106;DHT22;3083;51.508;7.966;2022-12-18T16:20:45;1.60;99.90
6106;DHT22;3083;51.508;7.966;2022-12-18T16:23:12;1.60;99.90
6106;DHT22;3083;51.508;7.966;2022-12-18T16:25:39;1.60;99.90
6106;DHT22;3083;51.508;7.966;2022-12-18T16:28:06;1.60;99.90
6106;DHT22;3083;51.508;7.966;2022-12-18T16:30:33;1.70;99.90
6106;DHT22;3083;51.508;7.966;2022-12-18T16:33:01;1.70;99.90
6106;DHT22;3083;51.508;7.966;2022-12-18T16:35:28;1.60;99.90